createdAt,value
2022-12-08T00:00:48.082Z,100943.56
2022-12-08T00:06:08.459Z,100928.50
2022-12-08T00:11:13.642Z,100909.34
2022-12-08T00:16:15.397Z,100894.72
2022-12-08T00:21:17.349Z,100894.69
2022-12-08T00:26:19.076Z,100888.34
2022-12-08T00:31:20.723Z,100880.88
2022-12-08T00:36:22.390Z,100875.66
2022-12-08T00:41:44.397Z,100873.38
2022-12-08T00:46:46.793Z,100862.28
2022-12-08T00:51:48.467Z,100861.50
2022-12-08T00:56:50.693Z,100867.03
2022-12-08T01:01:52.996Z,100868.19
2022-12-08T01:06:54.872Z,100872.91
2022-12-08T01:11:56.462Z,100852.84
2022-12-08T01:16:58.157Z,100864.47
2022-12-08T01:21:59.802Z,100854.78
2022-12-08T01:27:01.406Z,100852.59
2022-12-08T01:32:03.148Z,100849.94
2022-12-08T01:37:04.853Z,100835.72
2022-12-08T01:42:06.596Z,100843.59
2022-12-08T01:47:08.572Z,100828.47
2022-12-08T01:52:29.109Z,100833.63
2022-12-08T01:57:50.772Z,100837.28
2022-12-08T02:02:54.426Z,100809.41
2022-12-08T02:07:57.963Z,100812.47
2022-12-08T02:13:01.043Z,100816.69
2022-12-08T02:18:27.559Z,100803.81
2022-12-08T02:23:41.034Z,100795.34
2022-12-08T02:28:53.814Z,100800.44
2022-12-08T02:34:16.596Z,100795.47
2022-12-08T02:39:30.253Z,100794.16
2022-12-08T02:44:39.581Z,100794.50
2022-12-08T02:49:41.247Z,100793.91
2022-12-08T02:54:47.438Z,100777.59
2022-12-08T03:00:13.903Z,100778.56
2022-12-08T03:05:31.499Z,100758.59
2022-12-08T03:10:39.610Z,100744.66
2022-12-08T03:15:44.957Z,100748.09
2022-12-08T03:20:48.328Z,100733.97
2022-12-08T03:26:08.983Z,100727.75
2022-12-08T03:31:13.155Z,100718.53
2022-12-08T03:36:15.928Z,100715.66
2022-12-08T03:41:20.196Z,100724.47
2022-12-08T03:51:25.090Z,100721.50
2022-12-08T03:56:29.809Z,100719.53
2022-12-08T04:01:31.964Z,100717.06
2022-12-08T04:06:33.609Z,100723.69
2022-12-08T04:11:35.317Z,100732.66
2022-12-08T04:16:37.030Z,100720.06
2022-12-08T04:21:38.806Z,100735.00
2022-12-08T04:26:40.427Z,100725.97
2022-12-08T04:31:42.262Z,100710.47
2022-12-08T04:36:43.939Z,100704.13
2022-12-08T04:41:45.682Z,100693.53
2022-12-08T04:46:47.293Z,100693.25
2022-12-08T04:51:49.022Z,100689.53
2022-12-08T04:56:50.695Z,100690.09
2022-12-08T05:01:52.433Z,100683.38
2022-12-08T05:06:54.170Z,100686.72
2022-12-08T05:11:55.895Z,100695.66
2022-12-08T05:16:57.639Z,100697.78
2022-12-08T05:21:59.286Z,100693.25
2022-12-08T05:27:01.067Z,100703.69
2022-12-08T05:32:02.866Z,100686.28
2022-12-08T05:37:04.750Z,100684.34
2022-12-08T05:42:06.467Z,100675.56
2022-12-08T05:47:08.138Z,100670.34
2022-12-08T05:52:09.761Z,100670.09
2022-12-08T05:57:11.639Z,100674.31
2022-12-08T06:02:13.548Z,100661.19
2022-12-08T06:07:16.283Z,100653.97
2022-12-08T06:12:18.095Z,100648.28
2022-12-08T06:17:19.834Z,100645.75
2022-12-08T06:22:21.834Z,100652.59
2022-12-08T06:27:23.674Z,100652.31
2022-12-08T06:32:27.588Z,100661.97
2022-12-08T06:37:29.602Z,100656.97
2022-12-08T06:42:49.598Z,100660.75
2022-12-08T06:47:51.351Z,100657.13
2022-12-08T06:53:00.994Z,100666.59
2022-12-08T06:58:06.806Z,100671.06
2022-12-08T07:03:09.886Z,100672.13
2022-12-08T07:08:12.074Z,100687.50
2022-12-08T07:13:14.788Z,100688.59
2022-12-08T07:18:16.531Z,100682.97
2022-12-08T07:23:18.384Z,100674.28
2022-12-08T07:28:20.054Z,100694.31
2022-12-08T07:33:21.916Z,100690.97
2022-12-08T07:38:24.840Z,100693.75
2022-12-08T07:43:26.679Z,100690.66
2022-12-08T07:48:28.389Z,100682.22
2022-12-08T07:53:30.609Z,100675.78
2022-12-08T07:58:32.379Z,100687.22
2022-12-08T08:03:35.216Z,100678.50
2022-12-08T08:08:38.498Z,100669.91
2022-12-08T08:13:40.432Z,100673.59
2022-12-08T08:18:42.375Z,100675.03
2022-12-08T08:23:44.333Z,100677.28
2022-12-08T08:28:46.309Z,100673.34
2022-12-08T08:33:49.629Z,100678.31
2022-12-08T08:38:51.306Z,100701.34
2022-12-08T08:43:55.008Z,100698.84
2022-12-08T08:48:56.755Z,100697.91
2022-12-08T08:53:58.775Z,100699.56
2022-12-08T08:59:00.549Z,100705.94
2022-12-08T09:04:02.280Z,100697.97
2022-12-08T09:09:04.345Z,100682.81
2022-12-08T09:14:06.663Z,100689.69
2022-12-08T09:19:09.944Z,100704.44
2022-12-08T09:24:15.745Z,100714.72
2022-12-08T09:29:17.814Z,100725.50
2022-12-08T09:34:19.943Z,100708.31
2022-12-08T09:39:21.750Z,100698.84
2022-12-08T09:44:23.738Z,100669.06
2022-12-08T09:49:40.268Z,100682.22
2022-12-08T09:54:42.052Z,100683.38
2022-12-08T09:59:48.783Z,100678.50
2022-12-08T10:04:51.413Z,100678.94
2022-12-08T10:10:02.575Z,100679.09
2022-12-08T10:15:30.800Z,100675.91
2022-12-08T10:20:42.162Z,100666.06
2022-12-08T10:25:49.766Z,100660.75
2022-12-08T10:30:52.270Z,100648.13
2022-12-08T10:35:58.483Z,100647.84
2022-12-08T10:41:11.307Z,100628.19
2022-12-08T10:46:28.542Z,100623.06
2022-12-08T10:51:37.649Z,100612.56
2022-12-08T10:56:39.573Z,100608.28
2022-12-08T11:01:42.876Z,100609.97
2022-12-08T11:06:45.762Z,100602.53
2022-12-08T11:11:51.471Z,100593.06
2022-12-08T11:17:09.511Z,100601.94
2022-12-08T11:22:31.044Z,100595.50
2022-12-08T11:27:34.203Z,100589.75
2022-12-08T11:32:36.340Z,100582.59
2022-12-08T11:37:41.811Z,100587.56
2022-12-08T11:43:14.664Z,100579.84
2022-12-08T11:48:20.325Z,100576.13
2022-12-08T11:53:48.960Z,100576.69
2022-12-08T11:58:58.584Z,100571.00
2022-12-08T12:04:22.309Z,100560.66
2022-12-08T12:10:21.220Z,100561.03
2022-12-08T12:15:51.364Z,100550.84
2022-12-08T12:21:16.986Z,100539.47
2022-12-08T12:26:24.972Z,100546.03
2022-12-08T12:31:31.476Z,100561.16
2022-12-08T12:36:46.545Z,100568.91
2022-12-08T12:41:55.174Z,100575.72
2022-12-08T12:47:01.446Z,100569.56
2022-12-08T12:52:04.412Z,100571.25
2022-12-08T12:57:09.277Z,100564.09
2022-12-08T13:02:23.290Z,100556.03
2022-12-08T13:07:32.391Z,100536.66
2022-12-08T13:12:34.107Z,100541.28
2022-12-08T13:17:38.459Z,100524.00
2022-12-08T13:22:50.147Z,100540.38
2022-12-08T13:27:53.866Z,100546.84
2022-12-08T13:38:26.440Z,100530.69
2022-12-08T13:44:50.434Z,100524.31
2022-12-08T14:00:21.203Z,100515.25
2022-12-08T14:05:47.733Z,100509.31
2022-12-08T14:10:57.472Z,100522.06
2022-12-08T14:15:59.332Z,100517.34
2022-12-08T14:21:20.753Z,100502.19
2022-12-08T14:26:23.171Z,100504.59
2022-12-08T14:31:25.950Z,100509.63
2022-12-08T14:36:29.113Z,100498.88
2022-12-08T14:41:32.589Z,100493.31
2022-12-08T14:46:34.352Z,100500.03
2022-12-08T14:51:36.925Z,100495.16
2022-12-08T14:56:51.766Z,100503.28
2022-12-08T15:02:09.261Z,100508.06
2022-12-08T15:07:22.655Z,100523.78
2022-12-08T15:12:33.315Z,100518.44
2022-12-08T15:17:43.216Z,100523.16
2022-12-08T15:22:44.906Z,100518.59
2022-12-08T15:27:50.619Z,100490.41
2022-12-08T15:32:54.218Z,100498.28
2022-12-08T15:37:55.958Z,100492.53
2022-12-08T15:42:57.634Z,100489.41
2022-12-08T15:47:59.472Z,100488.25
2022-12-08T15:53:01.622Z,100491.09
2022-12-08T15:58:51.632Z,100495.09
2022-12-08T16:09:06.133Z,100510.53
2022-12-08T16:15:01.963Z,100503.25
2022-12-08T16:19:35.846Z,100491.53
2022-12-08T16:24:37.636Z,100498.03
2022-12-08T16:29:39.463Z,100499.00
2022-12-08T16:34:41.919Z,100497.44
2022-12-08T16:39:46.126Z,100491.69
2022-12-08T16:44:48.863Z,100503.34
2022-12-08T16:49:50.767Z,100493.31
2022-12-08T16:54:52.573Z,100495.44
2022-12-08T16:59:54.431Z,100493.56
2022-12-08T17:04:56.326Z,100494.00
2022-12-08T17:09:58.841Z,100493.00
2022-12-08T17:15:03.122Z,100500.72
2022-12-08T17:20:12.698Z,100499.72
2022-12-08T17:25:15.389Z,100506.97
2022-12-08T17:30:19.035Z,100506.28
2022-12-08T17:35:21.689Z,100508.28
2022-12-08T17:40:27.997Z,100507.00
2022-12-08T17:45:30.273Z,100506.28
2022-12-08T17:50:32.186Z,100508.44
2022-12-08T17:55:34.619Z,100506.16
2022-12-08T18:00:36.841Z,100520.06
2022-12-08T18:05:38.630Z,100519.16
2022-12-08T18:10:40.410Z,100527.47
2022-12-08T18:15:42.049Z,100526.91
2022-12-08T18:20:43.804Z,100530.06
2022-12-08T18:25:45.853Z,100533.50
2022-12-08T18:30:47.724Z,100536.66
2022-12-08T18:35:49.541Z,100528.63
2022-12-08T18:40:51.215Z,100524.34
2022-12-08T18:46:01.629Z,100535.94
2022-12-08T18:51:04.338Z,100531.81
2022-12-08T18:56:07.088Z,100544.13
2022-12-08T19:01:13.879Z,100539.38
2022-12-08T19:06:41.081Z,100549.69
2022-12-08T19:11:43.567Z,100550.97
2022-12-08T19:16:45.278Z,100550.72
2022-12-08T19:21:47.000Z,100556.88
2022-12-08T19:26:48.863Z,100560.88
2022-12-08T19:31:50.774Z,100560.88
2022-12-08T19:36:52.558Z,100558.16
2022-12-08T19:42:12.880Z,100567.31
2022-12-08T19:47:15.172Z,100558.72
2022-12-08T19:52:17.407Z,100559.59
2022-12-08T19:57:20.493Z,100567.75
2022-12-08T20:02:22.527Z,100573.06
2022-12-08T20:07:24.338Z,100565.34
2022-12-08T20:12:36.691Z,100583.94
2022-12-08T20:17:38.739Z,100586.09
2022-12-08T20:22:40.546Z,100605.56
2022-12-08T20:27:42.316Z,100610.28
2022-12-08T20:32:44.744Z,100611.16
2022-12-08T20:37:46.542Z,100611.28
2022-12-08T20:42:52.283Z,100602.53
2022-12-08T20:47:55.451Z,100601.56
2022-12-08T20:52:57.168Z,100608.28
2022-12-08T20:57:59.126Z,100607.13
2022-12-08T21:03:01.232Z,100613.28
2022-12-08T21:08:03.126Z,100615.56
2022-12-08T21:13:05.699Z,100611.16
2022-12-08T21:18:07.643Z,100616.88
2022-12-08T21:23:10.094Z,100612.28
2022-12-08T21:28:12.703Z,100622.56
2022-12-08T21:33:14.906Z,100620.53
2022-12-08T21:38:20.096Z,100623.84
2022-12-08T21:43:21.978Z,100622.22
2022-12-08T21:48:24.390Z,100626.34
2022-12-08T21:53:26.582Z,100615.28
2022-12-08T21:58:31.986Z,100624.19
2022-12-08T22:03:34.787Z,100623.03
2022-12-08T22:08:37.360Z,100628.06
2022-12-08T22:13:41.662Z,100628.00
2022-12-08T22:18:46.091Z,100624.75
2022-12-08T22:23:51.219Z,100635.72
2022-12-08T22:28:54.316Z,100636.22
2022-12-08T22:33:56.260Z,100640.53
2022-12-08T22:38:58.045Z,100631.84
2022-12-08T22:43:59.772Z,100632.81
2022-12-08T22:49:01.699Z,100635.38
2022-12-08T22:54:04.418Z,100626.81
2022-12-08T22:59:06.661Z,100623.25
2022-12-08T23:04:17.370Z,100612.28
2022-12-08T23:09:20.117Z,100614.00
2022-12-08T23:14:22.250Z,100617.88
2022-12-08T23:19:23.975Z,100618.28
2022-12-08T23:24:25.593Z,100617.28
2022-12-08T23:29:27.476Z,100619.44
2022-12-08T23:34:29.192Z,100603.00
2022-12-08T23:39:32.494Z,100605.22
2022-12-08T23:44:34.961Z,100611.94
2022-12-08T23:49:37.155Z,100602.59
2022-12-08T23:54:39.612Z,100606.69
2022-12-08T23:59:41.799Z,100611.78
